createdAt,value
2022-08-23T00:03:22.529Z,2.00
2022-08-23T00:08:27.558Z,2.00
2022-08-23T00:13:47.828Z,2.10
2022-08-23T00:18:53.342Z,1.95
2022-08-23T00:24:03.339Z,1.80
2022-08-23T00:29:05.642Z,2.10
2022-08-23T00:34:08.704Z,2.10
2022-08-23T00:39:13.715Z,2.23
2022-08-23T00:44:39.917Z,2.53
2022-08-23T00:49:44.557Z,2.20
2022-08-23T00:54:47.545Z,2.40
2022-08-23T00:59:55.771Z,2.28
2022-08-23T01:05:01.341Z,2.30
2022-08-23T01:10:11.161Z,2.50
2022-08-23T01:15:28.395Z,2.17
2022-08-23T01:20:38.575Z,2.50
2022-08-23T01:25:48.436Z,2.65
2022-08-23T01:30:53.971Z,2.40
2022-08-23T01:35:59.303Z,2.40
2022-08-23T01:41:07.002Z,2.20
2022-08-23T01:46:18.847Z,2.30
2022-08-23T01:51:21.900Z,2.90
2022-08-23T01:56:38.139Z,2.50
2022-08-23T02:01:47.377Z,2.70
2022-08-23T02:06:54.885Z,2.90
2022-08-23T02:11:59.369Z,2.73
2022-08-23T02:17:07.151Z,2.53
2022-08-23T02:22:11.821Z,2.80
2022-08-23T02:27:17.629Z,3.47
2022-08-23T02:32:22.920Z,3.57
2022-08-23T02:37:29.858Z,3.40
2022-08-23T02:42:34.743Z,3.30
2022-08-23T02:47:40.265Z,3.42
2022-08-23T02:52:50.491Z,3.20
2022-08-23T02:57:55.344Z,3.60
2022-08-23T03:03:00.334Z,3.55
2022-08-23T03:08:08.371Z,3.53
2022-08-23T03:13:19.451Z,3.60
2022-08-23T03:18:24.101Z,3.83
2022-08-23T03:23:29.366Z,3.60
2022-08-23T03:28:35.168Z,3.83
2022-08-23T03:33:41.189Z,3.72
2022-08-23T03:38:45.898Z,3.70
2022-08-23T03:43:52.764Z,4.15
2022-08-23T03:48:59.698Z,4.00
2022-08-23T03:54:06.062Z,4.18
2022-08-23T03:59:13.984Z,3.92
2022-08-23T04:04:18.890Z,4.28
2022-08-23T04:09:55.136Z,4.55
2022-08-23T04:15:02.392Z,4.35
2022-08-23T04:20:06.880Z,4.73
2022-08-23T04:25:16.301Z,5.00
2022-08-23T04:30:39.182Z,4.43
2022-08-23T04:35:46.921Z,4.30
2022-08-23T04:41:11.805Z,4.20
2022-08-23T04:46:15.551Z,4.30
2022-08-23T04:51:24.664Z,4.00
2022-08-23T04:56:29.444Z,4.57
2022-08-23T05:01:34.939Z,4.50
2022-08-23T05:06:40.248Z,4.90
2022-08-23T05:11:44.704Z,4.63
2022-08-23T05:16:50.398Z,5.43
2022-08-23T05:21:59.117Z,5.00
2022-08-23T05:27:18.144Z,5.03
2022-08-23T05:32:21.263Z,5.07
2022-08-23T05:37:23.698Z,5.10
2022-08-23T05:42:26.178Z,4.63
2022-08-23T05:47:33.764Z,4.37
2022-08-23T05:53:02.889Z,3.87
2022-08-23T05:58:08.602Z,4.10
2022-08-23T06:03:11.010Z,3.87
2022-08-23T06:08:13.546Z,3.53
2022-08-23T06:13:15.935Z,4.00
2022-08-23T06:18:23.272Z,3.40
2022-08-23T06:23:33.345Z,3.83
2022-08-23T06:28:36.232Z,3.80
2022-08-23T06:33:55.969Z,4.57
2022-08-23T06:39:37.375Z,3.83
2022-08-23T06:44:59.961Z,3.97
2022-08-23T06:50:14.206Z,3.97
2022-08-23T06:55:37.339Z,4.03
2022-08-23T07:00:55.494Z,3.90
2022-08-23T07:06:09.368Z,4.33
2022-08-23T07:11:16.752Z,5.47
2022-08-23T07:16:25.816Z,5.20
2022-08-23T07:21:28.791Z,4.97
2022-08-23T07:26:36.822Z,4.83
2022-08-23T07:31:48.015Z,5.10
2022-08-23T07:36:51.152Z,5.00
2022-08-23T07:41:58.415Z,5.20
2022-08-23T07:47:05.615Z,5.97
2022-08-23T07:52:08.404Z,6.23
2022-08-23T07:57:10.907Z,5.80
2022-08-23T08:02:34.033Z,5.33
2022-08-23T08:07:37.992Z,5.27
2022-08-23T08:12:40.719Z,5.43
2022-08-23T08:17:54.477Z,6.07
2022-08-23T08:23:00.487Z,5.93
2022-08-23T08:28:21.529Z,6.00
2022-08-23T08:33:24.524Z,6.20
2022-08-23T08:38:38.865Z,5.90
2022-08-23T08:43:50.972Z,6.43
2022-08-23T08:48:57.486Z,6.53
2022-08-23T08:54:01.168Z,6.90
2022-08-23T08:59:09.630Z,7.17
2022-08-23T09:04:14.536Z,7.03
2022-08-23T09:09:24.685Z,7.80
2022-08-23T09:14:27.482Z,7.50
2022-08-23T09:19:37.555Z,7.47
2022-08-23T09:24:42.719Z,7.10
2022-08-23T09:29:59.163Z,7.70
2022-08-23T09:35:12.337Z,7.07
2022-08-23T09:40:28.937Z,7.75
2022-08-23T09:45:35.821Z,7.55
2022-08-23T09:50:47.897Z,7.43
2022-08-23T09:55:57.339Z,7.43
2022-08-23T10:01:16.849Z,7.40
2022-08-23T10:06:34.293Z,9.57
2022-08-23T10:11:46.468Z,7.63
2022-08-23T10:17:05.283Z,7.40
2022-08-23T10:22:24.423Z,8.00
2022-08-23T10:28:02.202Z,7.10
2022-08-23T10:33:10.740Z,6.70
2022-08-23T10:38:35.077Z,7.28
2022-08-23T10:43:44.396Z,7.35
2022-08-23T10:48:52.326Z,6.82
2022-08-23T10:53:57.042Z,7.25
2022-08-23T10:59:03.343Z,6.32
2022-08-23T11:04:20.421Z,6.70
2022-08-23T11:09:46.014Z,7.28
2022-08-23T11:15:07.573Z,6.80
2022-08-23T11:20:35.660Z,6.45
2022-08-23T11:25:41.346Z,6.13
2022-08-23T11:31:04.769Z,6.57
2022-08-23T11:36:13.503Z,6.60
2022-08-23T11:41:33.394Z,8.05
2022-08-23T11:46:53.873Z,7.07
2022-08-23T11:52:08.146Z,6.20
2022-08-23T11:57:29.259Z,7.63
2022-08-23T12:02:39.506Z,7.17
2022-08-23T12:07:46.628Z,6.73
2022-08-23T12:13:15.270Z,6.97
2022-08-23T12:18:24.124Z,7.47
2022-08-23T12:23:30.832Z,6.88
2022-08-23T12:28:46.041Z,7.40
2022-08-23T12:33:59.075Z,7.78
2022-08-23T12:39:08.866Z,6.32
2022-08-23T12:44:17.415Z,6.25
2022-08-23T12:49:30.496Z,6.05
2022-08-23T12:54:43.321Z,6.88
2022-08-23T13:00:01.516Z,6.85
2022-08-23T13:05:48.548Z,7.22
2022-08-23T13:11:01.889Z,6.70
2022-08-23T13:16:27.246Z,6.80
2022-08-23T13:21:34.872Z,7.78
2022-08-23T13:26:49.813Z,7.78
2022-08-23T13:31:52.192Z,7.10
2022-08-23T13:36:57.499Z,6.88
2022-08-23T13:42:03.680Z,6.32
2022-08-23T13:47:06.785Z,5.70
2022-08-23T13:52:45.550Z,6.10
2022-08-23T13:57:37.112Z,5.80
2022-08-23T14:02:49.028Z,6.05
2022-08-23T14:07:53.491Z,6.00
2022-08-23T14:13:02.298Z,6.22
2022-08-23T14:18:05.018Z,5.72
2022-08-23T14:23:11.764Z,6.30
2022-08-23T14:28:18.838Z,6.15
2022-08-23T14:33:26.017Z,6.45
2022-08-23T14:38:28.395Z,6.43
2022-08-23T14:43:33.358Z,6.22
2022-08-23T14:48:37.391Z,6.15
2022-08-23T14:53:39.930Z,6.20
2022-08-23T14:58:43.041Z,5.97
2022-08-23T15:03:50.039Z,6.53
2022-08-23T15:08:54.649Z,7.20
2022-08-23T15:14:04.892Z,6.57
2022-08-23T15:19:07.646Z,6.15
2022-08-23T15:24:10.135Z,6.68
2022-08-23T15:29:19.201Z,6.97
2022-08-23T15:34:25.698Z,6.85
2022-08-23T15:39:30.436Z,7.32
2022-08-23T15:44:42.589Z,7.45
2022-08-23T15:49:45.145Z,6.38
2022-08-23T15:54:47.999Z,7.55
2022-08-23T15:59:55.254Z,7.28
2022-08-23T16:05:00.110Z,6.63
2022-08-23T16:10:06.555Z,6.63
2022-08-23T16:15:11.274Z,7.30
2022-08-23T16:20:14.362Z,7.50
2022-08-23T16:25:16.947Z,7.63
2022-08-23T16:30:19.417Z,7.33
2022-08-23T16:35:22.282Z,7.50
2022-08-23T16:40:29.636Z,7.67
2022-08-23T16:45:32.519Z,8.00
2022-08-23T16:50:37.440Z,7.60
2022-08-23T16:55:42.310Z,7.37
2022-08-23T17:00:48.062Z,7.27
2022-08-23T17:05:55.279Z,8.43
2022-08-23T17:11:03.549Z,8.67
2022-08-23T17:16:18.903Z,8.30
2022-08-23T17:21:21.474Z,8.20
2022-08-23T17:26:28.606Z,8.60
2022-08-23T17:31:33.574Z,8.07
2022-08-23T17:36:46.222Z,8.00
2022-08-23T17:41:55.966Z,7.67
2022-08-23T21:51:24.533Z,11.57
2022-08-23T21:56:30.262Z,12.30
2022-08-23T22:01:37.653Z,12.40
2022-08-23T22:06:41.325Z,13.37
2022-08-23T22:11:44.655Z,12.83
2022-08-23T22:16:49.408Z,11.17
2022-08-23T22:22:01.115Z,10.37
2022-08-23T22:27:03.810Z,10.17
2022-08-23T22:32:08.403Z,10.30
2022-08-23T22:37:10.991Z,10.57
2022-08-23T22:42:20.543Z,9.67
2022-08-23T22:47:28.509Z,10.50
2022-08-23T22:52:30.866Z,10.63
2022-08-23T22:57:38.009Z,10.73
2022-08-23T23:02:40.892Z,10.33
2022-08-23T23:08:04.213Z,10.57
2022-08-23T23:13:11.626Z,10.93
2022-08-23T23:18:19.279Z,11.30
2022-08-23T23:23:22.547Z,11.13
2022-08-23T23:28:25.538Z,11.40
2022-08-23T23:33:32.258Z,11.27
2022-08-23T23:38:37.585Z,10.97
2022-08-23T23:43:40.184Z,11.07
2022-08-23T23:48:43.605Z,12.03
2022-08-23T23:53:56.130Z,12.17
2022-08-23T23:58:58.798Z,11.53
